Dauntless Aviation
Greetings, Guest! To participate, [sign up for a free account] or [log in]
Airports Asia Indonesia
WIHH
HLP

Halim Perdanakusuma International Airport

Jakarta, INDONESIA

Airport Info
Edit

Location

Latitude / Longitude: 6°15'59"S / 106°53'27"E
  6°15.996'S / 106°53.46'E
  -6.2666 / 106.8910

Nearby radio navigation aids

AL HALIM PERDANAKUSUMA NDB. 243.5° 9.9nm from AL to field.
HLM HALIM PERDANAKUSUMA VOR/DME on field.

Runway Information

Runway 06 /24

Dimensions: 9843 x 197 ft.
Surface: ASP
 
Runway 06
Runway 24
Latitude: -6.272253 -6.261711
Longitude: 106.878792 106.9018
Elevation: 79 ft. 79 ft.
Runway true heading: 64 244
 
Satellite photo at:
Airport distance calculator
From:
Weather Reports

METAR

WIHH

WIHH 200500Z 27007KT 7000 SCT017 33/22 Q1009 NOSIG
WIII
15.6nm W
WIII 200530Z 26012KT 9999 FEW019CB SCT020 32/24 Q1007 RMK CB TO W AND NE

TAF

WIHH
TAF WIHH 192300Z 2000/2024 27008KT 6000 SCT016 BECMG 2001/2003 12006KT 7000 FEW018 TEMPO 2007/2010 30010KT 4000 TSRA FEW016CB BECMG 2013/2015 00000KT 6000 SCT016
WIII
15.6nm W
TAF WIII 192300Z 2000/2106 VRB05KT 4000 BR BECMG 2002/2004 22008KT 9000 FEW020CB FEW020 TEMPO 2008/2011 5000 TSRA FEW018CB BECMG 2014/2016 VRB05KT 5000 SCT020 BECMG 2101/2103 22010KT 9000 FEW020CB SCT020
Safelog

 

Dauntless Aviation

© 2007-2014 Dauntless Aviation, all rights reserved
Information provided via PilotNav comes from a variety of official and unofficial data sources. As errors are possible, do not use PilotNav for primary flight planning purposes. Verify any information that you receive via PilotNav with current and canonical charts and other official documents. The material in this database is subject to database copyrights held by Dauntless Aviation and may not be copied without the express permission of Dauntless Aviation - licenses for use of part of all of this data are available for purchase; enquire via the Dauntless Aviation helpdesk. A number of mechanisms and markers exist in the database to protect against and identify infringement / copyright. Automated queries against this website are stictly prohibited, and all activity is logged and analyzed.